createdAt,value
2022-08-05T00:02:07.886Z,22.34
2022-08-05T00:08:54.579Z,22.22
2022-08-05T00:15:57.694Z,22.01
2022-08-05T00:22:41.483Z,22.07
2022-08-05T00:44:04.183Z,21.47
2022-08-05T00:57:31.829Z,21.16
2022-08-05T01:04:26.760Z,21.25
2022-08-05T01:18:48.172Z,21.10
2022-08-05T07:21:25.595Z,25.82
2022-08-05T08:08:06.804Z,27.01
2022-08-05T08:14:32.899Z,27.22
2022-08-05T10:09:02.025Z,30.53
2022-08-05T10:15:54.592Z,30.70
2022-08-05T10:22:40.525Z,30.77
2022-08-05T10:30:06.868Z,30.98
2022-08-05T10:36:35.090Z,31.24
2022-08-05T10:43:17.565Z,31.38
2022-08-05T10:50:32.473Z,31.65
2022-08-05T10:57:19.111Z,31.66
2022-08-05T11:11:57.527Z,31.96
2022-08-05T11:18:06.875Z,32.03
2022-08-05T11:24:30.383Z,32.14
2022-08-05T11:54:40.709Z,32.85
2022-08-05T12:01:26.426Z,32.93
2022-08-05T12:08:11.853Z,32.96
2022-08-05T12:15:05.871Z,33.13
2022-08-05T12:22:04.039Z,33.36
2022-08-05T12:34:23.794Z,33.74
2022-08-05T12:53:43.408Z,34.30
2022-08-05T13:02:00.626Z,34.45
2022-08-05T13:06:50.754Z,34.74
2022-08-05T13:21:21.833Z,35.36
2022-08-05T13:28:08.370Z,35.41
2022-08-05T13:54:15.283Z,36.27
2022-08-05T14:01:03.028Z,36.19
2022-08-05T14:07:25.559Z,36.12
2022-08-05T14:14:14.904Z,36.41
2022-08-05T14:54:28.681Z,37.29
2022-08-05T14:59:51.479Z,37.41
2022-08-05T15:06:16.000Z,37.46
2022-08-05T15:12:59.701Z,37.55
2022-08-05T15:18:58.163Z,37.79
2022-08-05T15:24:49.355Z,38.08
2022-08-05T15:31:11.931Z,38.33
2022-08-05T15:37:19.390Z,38.68
2022-08-05T15:44:05.300Z,38.86
2022-08-05T15:50:31.502Z,38.84
2022-08-05T15:56:15.154Z,38.97
2022-08-05T16:03:05.231Z,38.99
2022-08-05T16:09:46.906Z,39.13
2022-08-05T16:16:55.980Z,39.16
2022-08-05T16:23:53.909Z,39.56
2022-08-05T16:38:03.627Z,40.13
2022-08-05T16:44:54.303Z,40.42
2022-08-05T16:51:51.070Z,40.76
2022-08-05T16:59:10.365Z,40.71
2022-08-05T17:05:54.236Z,40.78
2022-08-05T17:12:51.699Z,41.06
2022-08-05T17:19:09.690Z,41.26
2022-08-05T17:25:40.185Z,41.34
2022-08-05T17:32:17.006Z,41.40
2022-08-05T17:38:23.059Z,41.28
2022-08-05T17:45:10.108Z,40.65
2022-08-05T17:58:13.059Z,37.84
2022-08-05T18:04:07.807Z,36.63
2022-08-05T18:34:58.711Z,31.98
2022-08-05T19:06:11.443Z,29.80
2022-08-05T19:13:12.283Z,29.45
2022-08-05T19:20:11.832Z,29.11
2022-08-05T19:27:12.087Z,28.76
2022-08-05T19:34:10.617Z,28.50
2022-08-05T19:41:06.988Z,28.33
2022-08-05T20:00:28.146Z,27.92
2022-08-05T20:03:38.041Z,28.19
2022-08-05T20:07:59.435Z,27.58
2022-08-05T20:13:54.715Z,27.52
2022-08-05T20:26:40.000Z,27.37
2022-08-05T20:33:27.783Z,27.30
2022-08-05T20:40:34.664Z,27.24
2022-08-05T20:47:32.198Z,27.20
2022-08-05T21:00:21.094Z,27.10
2022-08-05T21:49:58.745Z,26.37
2022-08-05T22:02:08.981Z,26.13
2022-08-05T22:07:40.392Z,26.03
2022-08-05T22:14:34.515Z,25.94
2022-08-05T22:20:03.266Z,25.91
2022-08-05T22:26:11.398Z,25.91
2022-08-05T22:31:44.477Z,25.90
2022-08-05T22:58:43.726Z,25.93
2022-08-05T23:18:03.609Z,25.87
2022-08-05T23:23:53.805Z,25.85
2022-08-05T23:29:17.796Z,25.82
2022-08-05T23:34:41.193Z,25.82
2022-08-05T23:40:07.825Z,25.82
2022-08-05T23:45:31.286Z,25.82
2022-08-05T23:50:55.172Z,25.82
2022-08-05T23:56:20.021Z,25.83
